createdAt,value
2018-03-06T00:00:02.428Z,0.00
2018-03-06T00:01:02.377Z,0.00
2018-03-06T00:02:02.328Z,0.00
2018-03-06T00:03:02.303Z,0.00
2018-03-06T00:04:02.235Z,0.00
2018-03-06T00:05:02.191Z,0.00
2018-03-06T00:06:02.128Z,0.00
2018-03-06T00:07:02.077Z,0.00
2018-03-06T00:08:02.054Z,0.00
2018-03-06T00:09:01.976Z,0.00
2018-03-06T00:10:01.924Z,0.00
2018-03-06T00:11:01.880Z,0.00
2018-03-06T00:12:01.823Z,0.00
2018-03-06T00:13:01.796Z,0.00
2018-03-06T00:14:01.726Z,0.00
2018-03-06T00:15:01.678Z,0.00
2018-03-06T00:16:01.629Z,0.00
2018-03-06T00:17:01.577Z,0.00
2018-03-06T00:18:01.548Z,0.00
2018-03-06T00:19:01.473Z,0.00
2018-03-06T00:20:01.422Z,0.00
2018-03-06T00:21:01.372Z,0.00
2018-03-06T00:22:01.326Z,0.00
2018-03-06T00:23:01.297Z,0.00
2018-03-06T00:24:01.226Z,0.00
2018-03-06T00:25:01.170Z,0.00
2018-03-06T00:26:01.125Z,0.00
2018-03-06T00:27:01.072Z,0.00
2018-03-06T00:28:01.042Z,0.00
2018-03-06T00:29:00.968Z,0.00
2018-03-06T00:30:00.927Z,0.00
2018-03-06T00:31:00.872Z,0.00
2018-03-06T00:32:00.818Z,0.00
2018-03-06T00:33:00.820Z,0.00
2018-03-06T00:34:00.724Z,0.00
2018-03-06T00:35:00.669Z,0.00
2018-03-06T00:36:00.618Z,0.00
2018-03-06T00:37:00.566Z,0.00
2018-03-06T00:38:00.548Z,0.00
2018-03-06T00:39:00.468Z,0.00
2018-03-06T00:40:00.415Z,0.00
2018-03-06T00:41:00.365Z,0.00
2018-03-06T00:42:00.315Z,0.00
2018-03-06T00:43:00.291Z,0.00
2018-03-06T00:44:00.215Z,0.00
2018-03-06T00:45:00.165Z,0.00
2018-03-06T00:46:00.115Z,0.00
2018-03-06T00:47:00.068Z,0.00
2018-03-06T00:48:00.035Z,0.00
2018-03-06T00:48:59.960Z,0.00
2018-03-06T00:49:59.914Z,0.00
2018-03-06T00:50:59.861Z,0.00
2018-03-06T00:51:59.824Z,0.00
2018-03-06T00:52:59.785Z,0.00
2018-03-06T00:53:59.712Z,0.00
2018-03-06T00:54:59.668Z,0.00
2018-03-06T00:55:59.608Z,0.00
2018-03-06T00:56:59.562Z,0.00
2018-03-06T00:57:59.545Z,0.00
2018-03-06T00:58:59.464Z,0.00
2018-03-06T00:59:59.408Z,0.00
2018-03-06T01:00:59.356Z,0.00
2018-03-06T01:01:59.310Z,0.00
2018-03-06T01:02:59.261Z,0.00
2018-03-06T01:03:59.229Z,0.00
2018-03-06T01:04:59.160Z,0.00
2018-03-06T01:05:59.106Z,0.00
2018-03-06T01:06:59.055Z,0.00
2018-03-06T01:07:59.007Z,0.00
2018-03-06T01:08:58.981Z,0.00
2018-03-06T01:09:58.906Z,0.00
2018-03-06T01:10:58.857Z,0.00
2018-03-06T01:11:58.805Z,0.00
2018-03-06T01:12:58.754Z,0.00
2018-03-06T01:13:58.729Z,0.00
2018-03-06T01:14:58.657Z,0.00
2018-03-06T01:15:58.605Z,0.00
2018-03-06T01:16:58.553Z,0.00
2018-03-06T01:17:58.504Z,0.00
2018-03-06T01:18:58.479Z,0.00
2018-03-06T01:19:58.400Z,0.00
2018-03-06T01:20:58.350Z,0.00
2018-03-06T01:21:58.303Z,0.00
2018-03-06T01:22:58.251Z,0.00
2018-03-06T01:23:58.229Z,0.00
2018-03-06T01:24:58.149Z,0.00
2018-03-06T01:25:58.099Z,0.00
2018-03-06T01:26:58.047Z,0.00
2018-03-06T01:27:58.000Z,0.00
2018-03-06T01:28:57.972Z,0.00
2018-03-06T01:29:57.898Z,0.00
2018-03-06T01:30:57.846Z,0.00
2018-03-06T01:31:57.796Z,0.00
2018-03-06T01:32:57.750Z,0.00
2018-03-06T01:33:57.720Z,0.00
2018-03-06T01:34:57.645Z,0.00
2018-03-06T01:35:57.597Z,0.00
2018-03-06T01:36:57.548Z,0.00
2018-03-06T01:37:57.495Z,0.00
2018-03-06T01:38:57.469Z,0.00
2018-03-06T01:39:57.392Z,0.00
2018-03-06T01:40:57.348Z,0.00
2018-03-06T01:41:57.294Z,0.00
2018-03-06T01:42:57.243Z,0.00
2018-03-06T01:43:57.227Z,0.00
2018-03-06T01:44:57.138Z,0.00
2018-03-06T01:45:57.090Z,0.00
2018-03-06T01:46:57.042Z,0.00
2018-03-06T01:47:56.987Z,0.00
2018-03-06T01:48:56.939Z,0.00
2018-03-06T01:49:56.907Z,0.00
2018-03-06T01:50:56.835Z,0.00
2018-03-06T01:51:56.791Z,0.00
2018-03-06T01:52:56.738Z,0.00
2018-03-06T01:53:56.687Z,0.00
2018-03-06T01:54:56.658Z,0.00
2018-03-06T01:55:56.587Z,0.00
2018-03-06T01:56:56.537Z,0.00
2018-03-06T01:57:56.482Z,0.00
2018-03-06T01:58:56.434Z,0.00
2018-03-06T01:59:56.423Z,0.00
2018-03-06T02:00:56.327Z,0.00
2018-03-06T02:01:56.280Z,0.00
2018-03-06T02:02:56.227Z,0.00
2018-03-06T02:03:56.176Z,0.00
2018-03-06T02:04:56.153Z,0.00
2018-03-06T02:05:56.076Z,0.00
2018-03-06T02:06:56.030Z,0.00
2018-03-06T02:07:55.972Z,0.00
2018-03-06T02:08:55.927Z,0.00
2018-03-06T02:09:55.898Z,0.00
2018-03-06T02:10:55.828Z,0.00
2018-03-06T02:11:55.775Z,0.00
2018-03-06T02:12:55.725Z,0.00
2018-03-06T02:13:55.669Z,0.00
2018-03-06T02:14:55.646Z,0.00
2018-03-06T02:15:55.570Z,0.00
2018-03-06T02:16:55.520Z,0.00
2018-03-06T02:17:55.470Z,0.00
2018-03-06T02:18:55.421Z,0.00
2018-03-06T02:19:55.405Z,0.00
2018-03-06T02:20:55.318Z,0.00
2018-03-06T02:21:55.267Z,0.00
2018-03-06T02:22:55.219Z,0.00
2018-03-06T02:23:55.167Z,0.00
2018-03-06T02:24:55.110Z,0.00
2018-03-06T02:25:55.090Z,0.00
2018-03-06T02:26:55.012Z,0.00
2018-03-06T02:27:54.959Z,0.00
2018-03-06T02:28:54.910Z,0.00
2018-03-06T02:29:54.863Z,0.00
2018-03-06T02:30:54.841Z,0.00
2018-03-06T02:31:54.757Z,0.00
2018-03-06T02:32:54.707Z,0.00
2018-03-06T02:33:54.656Z,0.00
2018-03-06T02:34:54.605Z,0.00
2018-03-06T02:35:54.578Z,0.00
2018-03-06T02:36:54.504Z,0.00
2018-03-06T02:37:54.451Z,0.00
2018-03-06T02:38:54.401Z,0.00
2018-03-06T02:39:54.351Z,0.00
2018-03-06T02:40:54.324Z,0.00
2018-03-06T02:41:54.251Z,0.00
2018-03-06T02:42:54.198Z,0.00
2018-03-06T02:43:54.146Z,0.00
2018-03-06T02:44:54.109Z,0.00
2018-03-06T02:45:54.069Z,0.00
2018-03-06T02:46:53.996Z,0.00
2018-03-06T02:47:53.945Z,0.00
2018-03-06T02:48:53.894Z,0.00
2018-03-06T02:49:53.843Z,0.00
2018-03-06T02:50:53.816Z,0.00
2018-03-06T02:51:53.742Z,0.00
2018-03-06T02:52:53.690Z,0.00
2018-03-06T02:53:53.644Z,0.00
2018-03-06T02:54:53.589Z,0.00
2018-03-06T02:55:53.563Z,0.00
2018-03-06T02:56:53.491Z,0.00
2018-03-06T02:57:53.438Z,0.00
2018-03-06T02:58:53.389Z,0.00
2018-03-06T02:59:53.337Z,0.00
2018-03-06T03:00:53.309Z,0.00
2018-03-06T03:01:53.233Z,0.00
2018-03-06T03:02:53.183Z,0.00
2018-03-06T03:03:53.140Z,0.00
2018-03-06T03:04:53.082Z,0.00
2018-03-06T03:05:53.056Z,0.00
2018-03-06T03:06:52.981Z,0.00
2018-03-06T03:07:52.935Z,0.00
2018-03-06T03:08:52.882Z,0.00
2018-03-06T03:09:52.831Z,0.00
2018-03-06T03:10:52.800Z,0.00
2018-03-06T03:11:52.726Z,0.00
2018-03-06T03:12:52.677Z,0.00
2018-03-06T03:13:52.632Z,0.00
2018-03-06T03:14:52.607Z,0.00
2018-03-06T03:15:52.548Z,0.00
2018-03-06T03:16:52.477Z,0.00
2018-03-06T03:17:52.424Z,0.00
2018-03-06T03:18:52.374Z,0.00
2018-03-06T03:19:52.323Z,0.00
2018-03-06T03:20:52.306Z,0.00
2018-03-06T03:21:52.240Z,0.00
2018-03-06T03:22:52.175Z,0.00
2018-03-06T03:23:52.122Z,0.00
2018-03-06T03:24:52.070Z,0.00
2018-03-06T03:25:52.027Z,0.00
2018-03-06T03:26:52.016Z,0.00
2018-03-06T03:27:51.921Z,0.00
2018-03-06T03:28:51.867Z,0.00
2018-03-06T03:29:51.820Z,0.00
2018-03-06T03:30:51.766Z,0.00
2018-03-06T03:31:51.738Z,0.00
2018-03-06T03:32:51.667Z,0.00
2018-03-06T03:33:51.614Z,0.00
2018-03-06T03:34:51.564Z,0.00
2018-03-06T03:35:51.510Z,0.00
2018-03-06T03:36:51.492Z,0.00
2018-03-06T03:37:51.410Z,0.00
2018-03-06T03:38:51.360Z,0.00
2018-03-06T03:39:51.313Z,0.00
2018-03-06T03:40:51.257Z,0.00
2018-03-06T03:41:51.249Z,0.00
2018-03-06T03:42:51.157Z,0.00
2018-03-06T03:43:51.106Z,0.00
2018-03-06T03:44:51.058Z,0.00
2018-03-06T03:45:51.012Z,0.00
2018-03-06T03:46:50.979Z,0.00
2018-03-06T03:47:50.909Z,0.00
2018-03-06T03:48:50.856Z,0.00
2018-03-06T03:49:50.803Z,0.00
2018-03-06T03:50:50.763Z,0.00
2018-03-06T03:51:50.727Z,0.00
2018-03-06T03:52:50.654Z,0.00
2018-03-06T03:53:50.603Z,0.00
2018-03-06T03:54:50.551Z,0.00
2018-03-06T03:55:50.504Z,0.00
2018-03-06T03:56:50.477Z,0.00
2018-03-06T03:57:50.399Z,0.00
2018-03-06T03:58:50.353Z,0.00
2018-03-06T03:59:50.297Z,0.00
2018-03-06T04:00:50.247Z,0.00
2018-03-06T04:01:50.219Z,0.00
2018-03-06T04:02:50.148Z,0.00
2018-03-06T04:03:50.095Z,0.00
2018-03-06T04:04:50.048Z,0.00
2018-03-06T04:05:49.992Z,0.00
2018-03-06T04:06:49.969Z,0.00
2018-03-06T04:07:49.896Z,0.00
2018-03-06T04:08:49.845Z,0.00
2018-03-06T04:09:49.792Z,0.00
2018-03-06T04:10:49.742Z,0.00
2018-03-06T04:11:49.718Z,0.00
2018-03-06T04:12:49.640Z,0.00
2018-03-06T04:13:49.592Z,0.00
2018-03-06T04:14:49.546Z,0.00
2018-03-06T04:15:49.487Z,0.00
2018-03-06T04:16:49.439Z,0.00
2018-03-06T04:17:49.410Z,0.00
2018-03-06T04:18:49.338Z,0.00
2018-03-06T04:19:49.286Z,0.00
2018-03-06T04:20:49.236Z,0.00
2018-03-06T04:21:49.193Z,0.00
2018-03-06T04:22:49.159Z,0.00
2018-03-06T04:23:49.082Z,0.00
2018-03-06T04:24:49.032Z,0.00
2018-03-06T04:25:48.985Z,0.00
2018-03-06T04:26:48.935Z,0.00
2018-03-06T04:27:48.906Z,0.00
2018-03-06T04:28:48.830Z,0.00
2018-03-06T04:29:48.784Z,0.00
2018-03-06T04:30:48.728Z,0.00
2018-03-06T04:31:48.679Z,0.00
2018-03-06T04:32:48.652Z,0.00
2018-03-06T04:33:48.579Z,0.00
2018-03-06T04:34:48.528Z,0.00
2018-03-06T04:35:48.476Z,0.00
2018-03-06T04:36:48.426Z,0.00
2018-03-06T04:37:48.401Z,0.00
2018-03-06T04:38:48.323Z,0.00
2018-03-06T04:39:48.271Z,0.00
2018-03-06T04:40:48.223Z,0.00
2018-03-06T04:41:48.175Z,0.00
2018-03-06T04:42:48.148Z,0.00
2018-03-06T04:43:48.071Z,0.00
2018-03-06T04:44:48.023Z,0.00
2018-03-06T04:45:47.967Z,0.00
2018-03-06T04:46:47.918Z,0.00
2018-03-06T04:47:47.895Z,0.00
2018-03-06T04:48:47.818Z,0.00
2018-03-06T04:49:47.770Z,0.00
2018-03-06T04:50:47.716Z,0.00
2018-03-06T04:51:47.664Z,0.00
2018-03-06T04:52:47.640Z,0.00
2018-03-06T04:53:47.566Z,0.00
2018-03-06T04:54:47.555Z,0.00
2018-03-06T04:55:47.466Z,0.00
2018-03-06T04:56:47.410Z,0.00
2018-03-06T04:57:47.386Z,0.00
2018-03-06T04:58:47.310Z,0.00
2018-03-06T04:59:47.264Z,0.00
2018-03-06T05:00:47.210Z,0.00
2018-03-06T05:01:47.161Z,0.00
2018-03-06T05:02:47.135Z,0.00
2018-03-06T05:03:47.056Z,0.00
2018-03-06T05:04:47.009Z,0.00
2018-03-06T05:05:46.959Z,0.00
2018-03-06T05:06:46.908Z,0.00
2018-03-06T05:07:46.881Z,0.00
2018-03-06T05:08:46.808Z,0.00
2018-03-06T05:09:46.757Z,0.00
2018-03-06T05:10:46.706Z,0.00
2018-03-06T05:11:46.655Z,0.00
2018-03-06T05:12:46.635Z,0.00
2018-03-06T05:13:46.552Z,0.00
2018-03-06T05:14:46.501Z,0.00
2018-03-06T05:15:46.452Z,0.00
2018-03-06T05:16:46.398Z,0.00
2018-03-06T05:17:46.346Z,0.00
2018-03-06T05:18:46.321Z,0.00
2018-03-06T05:19:46.249Z,0.00
2018-03-06T05:20:46.197Z,0.00
2018-03-06T05:21:46.170Z,0.00
2018-03-06T05:22:46.100Z,0.00
2018-03-06T05:23:46.072Z,0.00
2018-03-06T05:24:45.993Z,0.00
2018-03-06T05:25:45.942Z,0.00
2018-03-06T05:26:45.942Z,0.00
2018-03-06T05:27:45.840Z,0.00
2018-03-06T05:28:45.819Z,0.00
2018-03-06T05:29:45.740Z,0.00
2018-03-06T05:30:45.690Z,0.00
2018-03-06T05:31:45.639Z,0.00
2018-03-06T05:32:45.591Z,0.00
2018-03-06T05:33:45.564Z,4.00
2018-03-06T05:34:45.492Z,4.00
2018-03-06T05:35:45.434Z,0.00
2018-03-06T05:36:45.386Z,4.00
2018-03-06T05:37:45.332Z,4.00
2018-03-06T05:38:45.306Z,4.00
2018-03-06T05:39:45.233Z,8.00
2018-03-06T05:40:45.181Z,8.00
2018-03-06T05:41:45.129Z,8.00
2018-03-06T05:42:45.081Z,12.00
2018-03-06T05:43:45.052Z,12.00
2018-03-06T05:44:44.981Z,16.00
2018-03-06T05:45:44.930Z,20.00
2018-03-06T05:46:44.878Z,20.00
2018-03-06T05:47:44.825Z,24.00
2018-03-06T05:48:44.798Z,28.00
2018-03-06T05:49:44.723Z,28.00
2018-03-06T05:50:44.675Z,32.00
2018-03-06T05:51:44.621Z,40.00
2018-03-06T05:52:44.570Z,44.00
2018-03-06T05:53:44.551Z,48.00
2018-03-06T05:54:44.472Z,56.00
2018-03-06T05:55:44.419Z,64.00
2018-03-06T05:56:44.367Z,68.00
2018-03-06T05:57:44.313Z,76.00
2018-03-06T05:58:44.291Z,84.00
2018-03-06T05:59:44.218Z,92.00
2018-03-06T06:00:44.164Z,104.00
2018-03-06T06:01:44.114Z,108.00
2018-03-06T06:02:44.064Z,120.00
2018-03-06T06:03:44.036Z,132.00
2018-03-06T06:04:43.961Z,140.00
2018-03-06T06:05:43.911Z,152.00
2018-03-06T06:06:43.863Z,168.00
2018-03-06T06:07:43.807Z,180.00
2018-03-06T06:08:43.786Z,192.00
2018-03-06T06:09:43.707Z,208.00
2018-03-06T06:10:43.662Z,220.00
2018-03-06T06:11:43.606Z,240.00
2018-03-06T06:12:43.558Z,256.00
2018-03-06T06:13:43.502Z,272.00
2018-03-06T06:14:43.481Z,288.00
2018-03-06T06:15:43.403Z,304.00
2018-03-06T06:16:43.354Z,324.00
2018-03-06T06:17:43.303Z,340.00
2018-03-06T06:18:43.249Z,356.00
2018-03-06T06:19:43.234Z,376.00
2018-03-06T06:20:43.147Z,396.00
2018-03-06T06:21:43.097Z,420.00
2018-03-06T06:22:43.049Z,444.00
2018-03-06T06:23:43.062Z,460.00
2018-03-06T06:24:42.969Z,484.00
2018-03-06T06:25:42.893Z,504.00
2018-03-06T06:26:42.846Z,528.00
2018-03-06T06:27:42.793Z,544.00
2018-03-06T06:28:42.746Z,564.00
2018-03-06T06:29:42.714Z,584.00
2018-03-06T06:30:42.643Z,600.00
2018-03-06T06:31:42.587Z,632.00
2018-03-06T06:32:42.540Z,664.00
2018-03-06T06:33:42.490Z,700.00
2018-03-06T06:34:42.462Z,724.00
2018-03-06T06:35:42.386Z,748.00
2018-03-06T06:36:42.336Z,780.00
2018-03-06T06:37:42.293Z,808.00
2018-03-06T06:38:42.235Z,844.00
2018-03-06T06:39:42.209Z,876.00
2018-03-06T06:40:42.133Z,908.00
2018-03-06T06:41:42.084Z,932.00
2018-03-06T06:42:42.039Z,956.00
2018-03-06T06:43:41.982Z,992.00
2018-03-06T06:44:41.952Z,1028.00
2018-03-06T06:45:41.882Z,1012.00
2018-03-06T06:46:41.828Z,1044.00
2018-03-06T06:47:41.776Z,1076.00
2018-03-06T06:48:41.729Z,1112.00
2018-03-06T06:49:41.700Z,1148.00
2018-03-06T06:50:41.628Z,1192.00
2018-03-06T06:51:41.576Z,1228.00
2018-03-06T06:52:41.527Z,1272.00
2018-03-06T06:53:41.478Z,1324.00
2018-03-06T06:54:41.454Z,1360.00
2018-03-06T06:55:41.374Z,1408.00
2018-03-06T06:56:41.324Z,1452.00
2018-03-06T06:57:41.271Z,1484.00
2018-03-06T06:58:41.224Z,1512.00
2018-03-06T06:59:41.196Z,1572.00
2018-03-06T07:00:41.129Z,1620.00
2018-03-06T07:01:41.073Z,1612.00
2018-03-06T07:02:41.023Z,1776.00
2018-03-06T07:03:40.971Z,1920.00
2018-03-06T07:04:40.944Z,2016.00
2018-03-06T07:05:40.870Z,2044.00
2018-03-06T07:06:40.821Z,2048.00
2018-03-06T07:07:40.771Z,2068.00
2018-03-06T07:08:40.720Z,2176.00
2018-03-06T07:09:40.696Z,2280.00
2018-03-06T07:10:40.622Z,2408.00
2018-03-06T07:11:40.575Z,2424.00
2018-03-06T07:12:40.523Z,2432.00
2018-03-06T07:13:40.476Z,2456.00
2018-03-06T07:14:40.446Z,2496.00
2018-03-06T07:15:40.370Z,2528.00
2018-03-06T07:16:40.324Z,2560.00
2018-03-06T07:17:40.270Z,2588.00
2018-03-06T07:18:40.223Z,2600.00
2018-03-06T07:19:40.197Z,2588.00
2018-03-06T07:20:40.127Z,2560.00
2018-03-06T07:21:40.073Z,2564.00
2018-03-06T07:22:40.027Z,2584.00
2018-03-06T07:23:39.976Z,2596.00
2018-03-06T07:24:39.953Z,2600.00
2018-03-06T07:25:39.877Z,2456.00
2018-03-06T07:26:39.829Z,2512.00
2018-03-06T07:27:39.789Z,2460.00
2018-03-06T07:28:39.732Z,2448.00
2018-03-06T07:29:39.707Z,2496.00
2018-03-06T07:30:39.634Z,2504.00
2018-03-06T07:31:39.589Z,2480.00
2018-03-06T07:32:39.534Z,2332.00
2018-03-06T07:33:39.485Z,2380.00
2018-03-06T07:34:39.472Z,2364.00
2018-03-06T07:35:39.417Z,2348.00
2018-03-06T07:36:39.340Z,2352.00
2018-03-06T07:37:39.292Z,2388.00
2018-03-06T07:38:39.245Z,2424.00
2018-03-06T07:39:39.225Z,2408.00
2018-03-06T07:40:39.143Z,2360.00
2018-03-06T07:41:39.093Z,2296.00
2018-03-06T07:42:39.049Z,2312.00
2018-03-06T07:43:39.000Z,2300.00
2018-03-06T07:44:38.977Z,2312.00
2018-03-06T07:45:38.902Z,2312.00
2018-03-06T07:46:38.857Z,2312.00
2018-03-06T07:47:38.806Z,2308.00
2018-03-06T07:48:38.759Z,2300.00
2018-03-06T07:49:38.735Z,2300.00
2018-03-06T07:50:38.666Z,2292.00
2018-03-06T07:51:38.615Z,2288.00
2018-03-06T07:52:38.563Z,2292.00
2018-03-06T07:53:38.516Z,2300.00
2018-03-06T07:54:38.466Z,2292.00
2018-03-06T07:55:38.447Z,2300.00
2018-03-06T07:56:38.375Z,2308.00
2018-03-06T07:57:38.329Z,2280.00
2018-03-06T07:58:38.279Z,2268.00
2018-03-06T07:59:38.231Z,2228.00
2018-03-06T08:00:38.259Z,2256.00
2018-03-06T08:01:38.135Z,2320.00
2018-03-06T08:02:38.094Z,2312.00
2018-03-06T08:03:38.043Z,2316.00
2018-03-06T08:04:37.992Z,2368.00
2018-03-06T08:05:37.967Z,2396.00
2018-03-06T08:06:37.903Z,2420.00
2018-03-06T08:07:37.846Z,2448.00
2018-03-06T08:08:37.803Z,2460.00
2018-03-06T08:09:37.753Z,2468.00
2018-03-06T08:10:37.728Z,2480.00
2018-03-06T08:11:37.659Z,2488.00
2018-03-06T08:12:37.614Z,2524.00
2018-03-06T08:13:37.562Z,2528.00
2018-03-06T08:14:37.515Z,2544.00
2018-03-06T08:15:37.489Z,2556.00
2018-03-06T08:16:37.417Z,2572.00
2018-03-06T08:17:37.372Z,2572.00
2018-03-06T08:18:37.326Z,2572.00
2018-03-06T08:19:37.276Z,2588.00
2018-03-06T08:20:37.255Z,2600.00
2018-03-06T08:21:37.185Z,2604.00
2018-03-06T08:22:37.135Z,2596.00
2018-03-06T08:23:37.088Z,2552.00
2018-03-06T08:24:44.165Z,2568.00
2018-03-06T08:25:37.017Z,2572.00
2018-03-06T08:26:36.944Z,2540.00
2018-03-06T08:27:36.902Z,2520.00
2018-03-06T08:28:36.847Z,2492.00
2018-03-06T08:29:36.807Z,2468.00
2018-03-06T08:30:36.784Z,2472.00
2018-03-06T08:31:36.710Z,2492.00
2018-03-06T08:32:36.665Z,2528.00
2018-03-06T08:33:36.615Z,2528.00
2018-03-06T08:34:43.159Z,2536.00
2018-03-06T08:35:36.544Z,2548.00
2018-03-06T08:36:36.475Z,2564.00
2018-03-06T08:37:36.441Z,2560.00
2018-03-06T08:38:36.390Z,2544.00
2018-03-06T08:39:36.333Z,2516.00
2018-03-06T08:40:36.314Z,2516.00
2018-03-06T08:41:36.248Z,2536.00
2018-03-06T08:42:36.193Z,2540.00
2018-03-06T08:43:36.162Z,2532.00
2018-03-06T08:44:36.093Z,2540.00
2018-03-06T08:45:36.075Z,2532.00
2018-03-06T08:46:36.001Z,2536.00
2018-03-06T08:47:35.955Z,2452.00
2018-03-06T08:48:35.910Z,2540.00
2018-03-06T08:49:35.866Z,2588.00
2018-03-06T08:50:35.837Z,2644.00
2018-03-06T08:51:35.763Z,2648.00
2018-03-06T08:52:35.721Z,2624.00
2018-03-06T08:53:35.675Z,2620.00
2018-03-06T08:54:35.634Z,2608.00
2018-03-06T08:55:35.605Z,2584.00
2018-03-06T08:56:35.539Z,2636.00
2018-03-06T08:57:35.488Z,2620.00
2018-03-06T08:58:35.441Z,2652.00
2018-03-06T08:59:35.392Z,2684.00
2018-03-06T09:00:35.369Z,2712.00
2018-03-06T09:01:35.299Z,2748.00
2018-03-06T09:02:35.253Z,2828.00
2018-03-06T09:03:35.235Z,2900.00
2018-03-06T09:04:35.162Z,2992.00
2018-03-06T09:05:35.144Z,3016.00
2018-03-06T09:06:35.073Z,3048.00
2018-03-06T09:07:35.020Z,3008.00
2018-03-06T09:08:34.976Z,2972.00
2018-03-06T09:09:34.927Z,2984.00
2018-03-06T09:10:34.906Z,3004.00
2018-03-06T09:11:34.838Z,2868.00
2018-03-06T09:12:34.793Z,2856.00
2018-03-06T09:13:34.741Z,2900.00
2018-03-06T09:14:34.744Z,2972.00
2018-03-06T09:15:34.677Z,2964.00
2018-03-06T09:16:34.602Z,3004.00
2018-03-06T09:17:34.555Z,3048.00
2018-03-06T09:18:34.509Z,3032.00
2018-03-06T09:19:34.465Z,3052.00
2018-03-06T09:20:34.446Z,3032.00
2018-03-06T09:21:34.377Z,3000.00
2018-03-06T09:22:34.327Z,2984.00
2018-03-06T09:23:34.279Z,2964.00
2018-03-06T09:24:34.236Z,2964.00
2018-03-06T09:25:34.209Z,2932.00
2018-03-06T09:26:34.141Z,2896.00
2018-03-06T09:27:34.094Z,2868.00
2018-03-06T09:28:34.052Z,2836.00
2018-03-06T09:29:34.003Z,2820.00
2018-03-06T09:30:33.983Z,2776.00
2018-03-06T09:31:33.910Z,2720.00
2018-03-06T09:32:33.864Z,2648.00
2018-03-06T09:33:33.820Z,2556.00
2018-03-06T09:34:33.771Z,2540.00
2018-03-06T09:35:33.752Z,2548.00
2018-03-06T09:36:33.679Z,2528.00
2018-03-06T09:37:33.636Z,2524.00
2018-03-06T09:38:33.587Z,2548.00
2018-03-06T09:39:33.541Z,2512.00
2018-03-06T09:40:33.520Z,2524.00
2018-03-06T09:41:33.452Z,2472.00
2018-03-06T09:42:33.405Z,2540.00
2018-03-06T09:43:33.358Z,2556.00
2018-03-06T09:44:33.318Z,2608.00
2018-03-06T09:45:33.291Z,2668.00
2018-03-06T09:46:33.222Z,2740.00
2018-03-06T09:47:33.178Z,2752.00
2018-03-06T09:48:33.132Z,2764.00
2018-03-06T09:49:33.088Z,2796.00
2018-03-06T09:50:33.061Z,2784.00
2018-03-06T09:51:32.992Z,2776.00
2018-03-06T09:52:32.946Z,2832.00
2018-03-06T09:53:32.902Z,2832.00
2018-03-06T09:54:32.858Z,2888.00
2018-03-06T09:55:32.832Z,2888.00
2018-03-06T09:56:32.764Z,2808.00
2018-03-06T09:57:32.744Z,2708.00
2018-03-06T09:58:32.676Z,2672.00
2018-03-06T09:59:32.628Z,2652.00
2018-03-06T10:00:32.605Z,2664.00
2018-03-06T10:01:32.542Z,2656.00
2018-03-06T10:02:32.494Z,2656.00
2018-03-06T10:03:32.446Z,2692.00
2018-03-06T10:04:32.403Z,2776.00
2018-03-06T10:05:32.396Z,2768.00
2018-03-06T10:06:32.326Z,2728.00
2018-03-06T10:07:32.280Z,2688.00
2018-03-06T10:08:32.234Z,2692.00
2018-03-06T10:09:32.187Z,2688.00
2018-03-06T10:10:32.169Z,2712.00
2018-03-06T10:11:32.098Z,2732.00
2018-03-06T10:12:32.062Z,2736.00
2018-03-06T10:13:32.007Z,2772.00
2018-03-06T10:14:31.960Z,2876.00
2018-03-06T10:15:31.939Z,2932.00
2018-03-06T10:16:31.870Z,2932.00
2018-03-06T10:17:31.823Z,2956.00
2018-03-06T10:18:31.777Z,2992.00
2018-03-06T10:19:31.730Z,3040.00
2018-03-06T10:20:31.711Z,3060.00
2018-03-06T10:21:31.653Z,3064.00
2018-03-06T10:22:31.625Z,3104.00
2018-03-06T10:23:31.552Z,3120.00
2018-03-06T10:24:31.504Z,3168.00
2018-03-06T10:25:31.488Z,3200.00
2018-03-06T10:26:31.413Z,3220.00
2018-03-06T10:27:31.368Z,3248.00
2018-03-06T10:28:31.324Z,3224.00
2018-03-06T10:29:31.284Z,3316.00
2018-03-06T10:30:31.261Z,3384.00
2018-03-06T10:31:31.189Z,3380.00
2018-03-06T10:32:31.143Z,3388.00
2018-03-06T10:33:31.098Z,3500.00
2018-03-06T10:34:31.053Z,3528.00
2018-03-06T10:35:31.053Z,3532.00
2018-03-06T10:36:30.983Z,3544.00
2018-03-06T10:37:30.918Z,3564.00
2018-03-06T10:38:30.877Z,3568.00
2018-03-06T10:39:30.864Z,3560.00
2018-03-06T10:40:30.781Z,3696.00
2018-03-06T10:41:30.760Z,3688.00
2018-03-06T10:42:30.692Z,3628.00
2018-03-06T10:43:30.650Z,3572.00
2018-03-06T10:44:30.602Z,3532.00
2018-03-06T10:45:30.562Z,3480.00
2018-03-06T10:46:30.541Z,3488.00
2018-03-06T10:47:30.467Z,3480.00
2018-03-06T10:48:30.424Z,3492.00
2018-03-06T10:49:30.380Z,3468.00
2018-03-06T10:50:30.336Z,3436.00
2018-03-06T10:51:30.314Z,3416.00
2018-03-06T10:52:30.245Z,3320.00
2018-03-06T10:53:30.200Z,3364.00
2018-03-06T10:54:30.171Z,3392.00
2018-03-06T10:55:30.110Z,3356.00
2018-03-06T10:56:30.093Z,3476.00
2018-03-06T10:57:30.021Z,3488.00
2018-03-06T10:58:30.032Z,3468.00
2018-03-06T10:59:29.935Z,3504.00
2018-03-06T11:00:29.891Z,3552.00
2018-03-06T11:01:29.864Z,3580.00
2018-03-06T11:02:29.802Z,3608.00
2018-03-06T11:03:29.754Z,3604.00
2018-03-06T11:04:29.714Z,3652.00
2018-03-06T11:05:29.650Z,3680.00
2018-03-06T11:06:29.634Z,3692.00
2018-03-06T11:07:29.564Z,3684.00
2018-03-06T11:08:29.521Z,3672.00
2018-03-06T11:09:29.472Z,3704.00
2018-03-06T11:10:29.429Z,3656.00
2018-03-06T11:11:29.408Z,3628.00
2018-03-06T11:12:29.340Z,3584.00
2018-03-06T11:13:29.296Z,3536.00
2018-03-06T11:14:29.252Z,3488.00
2018-03-06T11:15:29.208Z,3412.00
2018-03-06T11:16:29.216Z,3364.00
2018-03-06T11:17:29.119Z,3344.00
2018-03-06T11:18:29.145Z,3352.00
2018-03-06T11:19:29.028Z,3324.00
2018-03-06T11:20:28.986Z,3316.00
2018-03-06T11:21:28.963Z,3308.00
2018-03-06T11:22:28.896Z,3324.00
2018-03-06T11:23:28.855Z,3320.00
2018-03-06T11:24:28.808Z,3336.00
2018-03-06T11:25:28.765Z,3364.00
2018-03-06T11:26:28.742Z,3340.00
2018-03-06T11:27:28.674Z,3332.00
2018-03-06T11:28:28.631Z,3316.00
2018-03-06T11:29:28.585Z,3316.00
2018-03-06T11:30:28.545Z,3368.00
2018-03-06T11:31:28.521Z,3428.00
2018-03-06T11:32:28.460Z,3500.00
2018-03-06T11:33:28.408Z,3552.00
2018-03-06T11:34:28.364Z,3604.00
2018-03-06T11:35:28.352Z,3636.00
2018-03-06T11:36:28.301Z,3656.00
2018-03-06T11:37:28.233Z,3692.00
2018-03-06T11:38:28.191Z,3712.00
2018-03-06T11:39:28.144Z,3756.00
2018-03-06T11:40:28.100Z,3828.00
2018-03-06T11:41:28.079Z,3892.00
2018-03-06T11:42:28.012Z,3980.00
2018-03-06T11:43:27.968Z,4016.00
2018-03-06T11:44:27.926Z,4048.00
2018-03-06T11:45:27.883Z,4072.00
2018-03-06T11:46:27.862Z,4084.00
2018-03-06T11:47:27.792Z,4100.00
2018-03-06T11:48:27.749Z,4088.00
2018-03-06T11:49:27.705Z,4096.00
2018-03-06T11:50:27.664Z,4100.00
2018-03-06T11:51:27.639Z,4072.00
2018-03-06T11:52:27.570Z,4100.00
2018-03-06T11:53:27.529Z,4140.00
2018-03-06T11:54:27.484Z,4132.00
2018-03-06T11:55:27.441Z,4092.00
2018-03-06T11:56:27.417Z,4052.00
2018-03-06T11:57:27.353Z,4020.00
2018-03-06T11:58:27.310Z,3948.00
2018-03-06T11:59:27.274Z,3904.00
2018-03-06T12:00:27.222Z,3872.00
2018-03-06T12:01:27.201Z,3836.00
2018-03-06T12:02:27.133Z,3784.00
2018-03-06T12:03:27.086Z,3740.00
2018-03-06T12:04:27.051Z,3688.00
2018-03-06T12:05:27.000Z,3624.00
2018-03-06T12:06:26.980Z,3592.00
2018-03-06T12:07:26.912Z,3524.00
2018-03-06T12:08:26.866Z,3416.00
2018-03-06T12:09:26.828Z,3356.00
2018-03-06T12:10:26.786Z,3284.00
2018-03-06T12:11:26.760Z,3248.00
2018-03-06T12:12:26.696Z,3224.00
2018-03-06T12:13:26.656Z,3212.00
2018-03-06T12:14:26.604Z,3192.00
2018-03-06T12:15:26.564Z,3156.00
2018-03-06T12:16:26.541Z,3156.00
2018-03-06T12:17:26.485Z,3140.00
2018-03-06T12:18:26.429Z,3144.00
2018-03-06T12:19:26.388Z,3188.00
2018-03-06T12:20:26.344Z,3264.00
2018-03-06T12:21:26.359Z,3360.00
2018-03-06T12:23:57.811Z,3444.00
2018-03-06T12:24:57.759Z,3476.00
2018-03-06T12:25:57.715Z,3472.00
2018-03-06T12:26:57.698Z,3432.00
2018-03-06T12:27:57.635Z,3416.00
2018-03-06T12:28:57.584Z,3420.00
2018-03-06T12:29:57.548Z,3408.00
2018-03-06T12:30:57.496Z,3372.00
2018-03-06T12:31:57.487Z,3364.00
2018-03-06T12:32:57.411Z,3372.00
2018-03-06T12:33:57.378Z,3356.00
2018-03-06T12:34:57.319Z,3344.00
2018-03-06T12:35:57.282Z,3320.00
2018-03-06T12:36:57.292Z,3288.00
2018-03-06T12:37:57.191Z,3252.00
2018-03-06T12:38:57.144Z,3216.00
2018-03-06T12:39:57.107Z,3180.00